sensor_id;sensor_type;location;lat;lon;timestamp;P1;durP1;ratioP1;P2;durP2;ratioP2
6598;SDS011;3335;43.198;27.918;2022-09-16T00:00:29;22.90;;;8.20;;
6598;SDS011;3335;43.198;27.918;2022-09-16T00:02:57;12.60;;;7.27;;
6598;SDS011;3335;43.198;27.918;2022-09-16T00:05:24;17.37;;;8.47;;
6598;SDS011;3335;43.198;27.918;2022-09-16T00:07:51;21.10;;;6.80;;
6598;SDS011;3335;43.198;27.918;2022-09-16T00:10:18;14.97;;;6.63;;
6598;SDS011;3335;43.198;27.918;2022-09-16T00:12:47;12.60;;;6.70;;
6598;SDS011;3335;43.198;27.918;2022-09-16T00:15:14;22.63;;;5.77;;
6598;SDS011;3335;43.198;27.918;2022-09-16T00:17:41;10.73;;;6.37;;
6598;SDS011;3335;43.198;27.918;2022-09-16T00:20:08;19.23;;;5.90;;
6598;SDS011;3335;43.198;27.918;2022-09-16T00:22:35;14.30;;;5.87;;
6598;SDS011;3335;43.198;27.918;2022-09-16T00:25:02;14.97;;;5.43;;
6598;SDS011;3335;43.198;27.918;2022-09-16T00:27:29;15.73;;;5.90;;
6598;SDS011;3335;43.198;27.918;2022-09-16T00:29:58;17.87;;;6.30;;
6598;SDS011;3335;43.198;27.918;2022-09-16T00:32:24;10.40;;;6.40;;
6598;SDS011;3335;43.198;27.918;2022-09-16T00:34:51;10.47;;;6.50;;
6598;SDS011;3335;43.198;27.918;2022-09-16T00:37:18;12.37;;;6.63;;
6598;SDS011;3335;43.198;27.918;2022-09-16T00:39:46;10.17;;;6.03;;
6598;SDS011;3335;43.198;27.918;2022-09-16T00:42:14;15.23;;;6.77;;
6598;SDS011;3335;43.198;27.918;2022-09-16T00:44:50;11.33;;;6.90;;
6598;SDS011;3335;43.198;27.918;2022-09-16T00:47:20;13.33;;;6.63;;
6598;SDS011;3335;43.198;27.918;2022-09-16T00:49:50;13.73;;;6.70;;
6598;SDS011;3335;43.198;27.918;2022-09-16T00:52:19;11.77;;;7.00;;
6598;SDS011;3335;43.198;27.918;2022-09-16T00:54:48;17.90;;;8.67;;
6598;SDS011;3335;43.198;27.918;2022-09-16T00:57:15;18.60;;;6.47;;
6598;SDS011;3335;43.198;27.918;2022-09-16T00:59:43;15.80;;;7.60;;
6598;SDS011;3335;43.198;27.918;2022-09-16T01:02:15;14.43;;;6.43;;
6598;SDS011;3335;43.198;27.918;2022-09-16T01:04:46;12.20;;;6.93;;
6598;SDS011;3335;43.198;27.918;2022-09-16T01:07:17;12.80;;;6.83;;
6598;SDS011;3335;43.198;27.918;2022-09-16T01:09:51;21.40;;;7.97;;
6598;SDS011;3335;43.198;27.918;2022-09-16T01:12:18;15.90;;;6.97;;
6598;SDS011;3335;43.198;27.918;2022-09-16T01:14:45;21.10;;;7.33;;
6598;SDS011;3335;43.198;27.918;2022-09-16T01:17:26;20.30;;;8.23;;
6598;SDS011;3335;43.198;27.918;2022-09-16T01:26:36;20.00;;;8.33;;
6598;SDS011;3335;43.198;27.918;2022-09-16T01:29:32;15.20;;;6.83;;
6598;SDS011;3335;43.198;27.918;2022-09-16T01:32:13;16.73;;;7.43;;
6598;SDS011;3335;43.198;27.918;2022-09-16T01:34:47;31.40;;;7.50;;
6598;SDS011;3335;43.198;27.918;2022-09-16T01:37:23;17.67;;;7.53;;
6598;SDS011;3335;43.198;27.918;2022-09-16T01:40:01;16.63;;;7.63;;
6598;SDS011;3335;43.198;27.918;2022-09-16T01:42:35;21.17;;;8.50;;
6598;SDS011;3335;43.198;27.918;2022-09-16T01:45:05;23.83;;;9.93;;
6598;SDS011;3335;43.198;27.918;2022-09-16T01:47:40;25.77;;;9.07;;
6598;SDS011;3335;43.198;27.918;2022-09-16T01:50:16;22.27;;;9.13;;
6598;SDS011;3335;43.198;27.918;2022-09-16T01:52:51;17.17;;;10.17;;
6598;SDS011;3335;43.198;27.918;2022-09-16T01:55:25;16.73;;;9.00;;
6598;SDS011;3335;43.198;27.918;2022-09-16T01:57:57;15.53;;;7.73;;
6598;SDS011;3335;43.198;27.918;2022-09-16T02:00:28;16.00;;;8.20;;
6598;SDS011;3335;43.198;27.918;2022-09-16T02:02:59;20.63;;;8.27;;
6598;SDS011;3335;43.198;27.918;2022-09-16T02:05:32;14.97;;;7.93;;
6598;SDS011;3335;43.198;27.918;2022-09-16T02:08:04;19.93;;;7.07;;
6598;SDS011;3335;43.198;27.918;2022-09-16T02:10:34;22.13;;;7.90;;
6598;SDS011;3335;43.198;27.918;2022-09-16T02:13:07;14.17;;;7.40;;
6598;SDS011;3335;43.198;27.918;2022-09-16T02:15:51;13.57;;;7.03;;
6598;SDS011;3335;43.198;27.918;2022-09-16T02:18:23;18.53;;;6.40;;
6598;SDS011;3335;43.198;27.918;2022-09-16T02:20:54;18.83;;;6.87;;
6598;SDS011;3335;43.198;27.918;2022-09-16T02:23:26;13.73;;;7.63;;
6598;SDS011;3335;43.198;27.918;2022-09-16T02:25:57;14.10;;;7.57;;
6598;SDS011;3335;43.198;27.918;2022-09-16T02:28:28;15.07;;;6.77;;
6598;SDS011;3335;43.198;27.918;2022-09-16T02:30:59;12.97;;;6.50;;
6598;SDS011;3335;43.198;27.918;2022-09-16T02:33:32;14.47;;;6.60;;
6598;SDS011;3335;43.198;27.918;2022-09-16T02:36:02;19.23;;;7.20;;
6598;SDS011;3335;43.198;27.918;2022-09-16T02:38:32;17.93;;;7.00;;
6598;SDS011;3335;43.198;27.918;2022-09-16T02:41:04;17.63;;;6.77;;
6598;SDS011;3335;43.198;27.918;2022-09-16T02:43:31;20.60;;;6.77;;
6598;SDS011;3335;43.198;27.918;2022-09-16T02:46:00;13.37;;;6.23;;
6598;SDS011;3335;43.198;27.918;2022-09-16T02:48:38;14.20;;;6.20;;
6598;SDS011;3335;43.198;27.918;2022-09-16T02:51:15;15.37;;;6.50;;
6598;SDS011;3335;43.198;27.918;2022-09-16T02:53:51;13.10;;;6.53;;
6598;SDS011;3335;43.198;27.918;2022-09-16T02:56:23;15.37;;;7.50;;
6598;SDS011;3335;43.198;27.918;2022-09-16T02:58:54;15.97;;;7.43;;
6598;SDS011;3335;43.198;27.918;2022-09-16T03:01:22;19.80;;;8.00;;
6598;SDS011;3335;43.198;27.918;2022-09-16T03:03:51;18.83;;;8.07;;
6598;SDS011;3335;43.198;27.918;2022-09-16T03:06:21;19.47;;;9.83;;
6598;SDS011;3335;43.198;27.918;2022-09-16T03:08:50;15.60;;;8.63;;
6598;SDS011;3335;43.198;27.918;2022-09-16T03:11:22;22.60;;;9.47;;
6598;SDS011;3335;43.198;27.918;2022-09-16T03:13:59;27.47;;;9.43;;
6598;SDS011;3335;43.198;27.918;2022-09-16T03:16:39;21.03;;;10.10;;
6598;SDS011;3335;43.198;27.918;2022-09-16T03:19:15;21.43;;;9.60;;
6598;SDS011;3335;43.198;27.918;2022-09-16T03:21:51;20.90;;;9.43;;
6598;SDS011;3335;43.198;27.918;2022-09-16T03:24:26;15.97;;;9.70;;
6598;SDS011;3335;43.198;27.918;2022-09-16T03:26:58;20.80;;;9.80;;
6598;SDS011;3335;43.198;27.918;2022-09-16T03:29:31;30.60;;;9.50;;
6598;SDS011;3335;43.198;27.918;2022-09-16T03:32:02;15.87;;;8.80;;
6598;SDS011;3335;43.198;27.918;2022-09-16T03:34:37;19.80;;;9.10;;
6598;SDS011;3335;43.198;27.918;2022-09-16T03:37:08;17.37;;;9.43;;
6598;SDS011;3335;43.198;27.918;2022-09-16T03:39:37;21.13;;;8.93;;
6598;SDS011;3335;43.198;27.918;2022-09-16T03:42:06;24.03;;;8.73;;
6598;SDS011;3335;43.198;27.918;2022-09-16T03:44:36;16.53;;;8.10;;
6598;SDS011;3335;43.198;27.918;2022-09-16T03:47:05;16.23;;;8.87;;
6598;SDS011;3335;43.198;27.918;2022-09-16T03:49:32;16.00;;;9.17;;
6598;SDS011;3335;43.198;27.918;2022-09-16T03:52:01;20.37;;;9.53;;
6598;SDS011;3335;43.198;27.918;2022-09-16T03:54:29;16.87;;;9.27;;
6598;SDS011;3335;43.198;27.918;2022-09-16T03:56:57;18.27;;;9.47;;
6598;SDS011;3335;43.198;27.918;2022-09-16T03:59:25;15.10;;;8.70;;
6598;SDS011;3335;43.198;27.918;2022-09-16T04:01:53;23.70;;;9.80;;
6598;SDS011;3335;43.198;27.918;2022-09-16T04:04:20;23.77;;;10.63;;
6598;SDS011;3335;43.198;27.918;2022-09-16T04:06:47;19.27;;;9.93;;
6598;SDS011;3335;43.198;27.918;2022-09-16T04:09:15;23.87;;;10.60;;
6598;SDS011;3335;43.198;27.918;2022-09-16T04:11:42;21.77;;;10.27;;
6598;SDS011;3335;43.198;27.918;2022-09-16T04:14:09;19.83;;;10.50;;
6598;SDS011;3335;43.198;27.918;2022-09-16T04:16:36;25.07;;;10.83;;
6598;SDS011;3335;43.198;27.918;2022-09-16T04:19:03;18.50;;;10.07;;
6598;SDS011;3335;43.198;27.918;2022-09-16T04:21:31;17.43;;;10.20;;
6598;SDS011;3335;43.198;27.918;2022-09-16T04:23:58;17.33;;;10.63;;
6598;SDS011;3335;43.198;27.918;2022-09-16T04:26:26;21.57;;;10.50;;
6598;SDS011;3335;43.198;27.918;2022-09-16T04:28:53;20.93;;;11.03;;
6598;SDS011;3335;43.198;27.918;2022-09-16T04:31:20;22.20;;;12.30;;
6598;SDS011;3335;43.198;27.918;2022-09-16T04:33:47;25.30;;;13.53;;
6598;SDS011;3335;43.198;27.918;2022-09-16T04:36:16;25.67;;;13.03;;
6598;SDS011;3335;43.198;27.918;2022-09-16T04:38:45;36.40;;;16.57;;
6598;SDS011;3335;43.198;27.918;2022-09-16T04:41:13;29.33;;;17.13;;
6598;SDS011;3335;43.198;27.918;2022-09-16T04:43:43;33.53;;;16.50;;
6598;SDS011;3335;43.198;27.918;2022-09-16T04:46:10;37.30;;;17.57;;
6598;SDS011;3335;43.198;27.918;2022-09-16T04:48:37;34.33;;;17.37;;
6598;SDS011;3335;43.198;27.918;2022-09-16T04:51:05;31.07;;;17.90;;
6598;SDS011;3335;43.198;27.918;2022-09-16T04:53:41;30.17;;;16.43;;
6598;SDS011;3335;43.198;27.918;2022-09-16T04:56:10;31.10;;;17.13;;
6598;SDS011;3335;43.198;27.918;2022-09-16T04:58:40;26.00;;;14.17;;
6598;SDS011;3335;43.198;27.918;2022-09-16T05:01:10;25.27;;;12.27;;
6598;SDS011;3335;43.198;27.918;2022-09-16T05:03:38;31.23;;;11.90;;
6598;SDS011;3335;43.198;27.918;2022-09-16T05:06:06;25.83;;;10.30;;
6598;SDS011;3335;43.198;27.918;2022-09-16T05:08:35;17.90;;;9.97;;
6598;SDS011;3335;43.198;27.918;2022-09-16T05:11:04;19.67;;;9.40;;
6598;SDS011;3335;43.198;27.918;2022-09-16T05:13:33;14.50;;;8.13;;
6598;SDS011;3335;43.198;27.918;2022-09-16T05:16:01;18.67;;;8.77;;
6598;SDS011;3335;43.198;27.918;2022-09-16T05:18:30;16.77;;;8.10;;
6598;SDS011;3335;43.198;27.918;2022-09-16T05:20:57;17.83;;;7.27;;
6598;SDS011;3335;43.198;27.918;2022-09-16T05:23:24;11.37;;;6.90;;
6598;SDS011;3335;43.198;27.918;2022-09-16T05:25:52;10.90;;;7.33;;
6598;SDS011;3335;43.198;27.918;2022-09-16T05:28:19;15.93;;;7.27;;
6598;SDS011;3335;43.198;27.918;2022-09-16T05:30:46;9.43;;;6.70;;
6598;SDS011;3335;43.198;27.918;2022-09-16T05:33:13;17.50;;;6.93;;
6598;SDS011;3335;43.198;27.918;2022-09-16T05:35:42;15.53;;;7.13;;
6598;SDS011;3335;43.198;27.918;2022-09-16T05:38:10;11.00;;;5.97;;
6598;SDS011;3335;43.198;27.918;2022-09-16T05:40:38;12.87;;;6.60;;
6598;SDS011;3335;43.198;27.918;2022-09-16T05:43:05;13.23;;;7.10;;
6598;SDS011;3335;43.198;27.918;2022-09-16T05:45:32;14.50;;;5.87;;
6598;SDS011;3335;43.198;27.918;2022-09-16T05:47:59;14.97;;;6.90;;
6598;SDS011;3335;43.198;27.918;2022-09-16T05:50:26;11.90;;;5.90;;
6598;SDS011;3335;43.198;27.918;2022-09-16T05:52:54;13.73;;;4.90;;
6598;SDS011;3335;43.198;27.918;2022-09-16T05:55:21;9.20;;;5.57;;
6598;SDS011;3335;43.198;27.918;2022-09-16T05:57:50;10.93;;;5.60;;
6598;SDS011;3335;43.198;27.918;2022-09-16T06:00:17;11.47;;;5.70;;
6598;SDS011;3335;43.198;27.918;2022-09-16T06:02:45;13.30;;;6.07;;
6598;SDS011;3335;43.198;27.918;2022-09-16T06:05:13;14.03;;;6.57;;
6598;SDS011;3335;43.198;27.918;2022-09-16T06:07:40;10.30;;;5.37;;
6598;SDS011;3335;43.198;27.918;2022-09-16T06:10:08;16.33;;;5.43;;
6598;SDS011;3335;43.198;27.918;2022-09-16T06:12:35;15.70;;;5.87;;
6598;SDS011;3335;43.198;27.918;2022-09-16T06:15:02;14.33;;;5.10;;
6598;SDS011;3335;43.198;27.918;2022-09-16T06:17:30;11.43;;;4.63;;
6598;SDS011;3335;43.198;27.918;2022-09-16T06:19:57;15.80;;;5.50;;
6598;SDS011;3335;43.198;27.918;2022-09-16T06:22:24;14.30;;;6.57;;
6598;SDS011;3335;43.198;27.918;2022-09-16T06:24:51;17.63;;;5.77;;
6598;SDS011;3335;43.198;27.918;2022-09-16T06:27:19;13.67;;;5.93;;
6598;SDS011;3335;43.198;27.918;2022-09-16T06:29:47;15.50;;;6.17;;
6598;SDS011;3335;43.198;27.918;2022-09-16T06:32:13;15.23;;;5.13;;
6598;SDS011;3335;43.198;27.918;2022-09-16T06:34:40;19.23;;;4.50;;
6598;SDS011;3335;43.198;27.918;2022-09-16T06:37:10;12.27;;;3.87;;
6598;SDS011;3335;43.198;27.918;2022-09-16T06:39:38;16.80;;;3.60;;
6598;SDS011;3335;43.198;27.918;2022-09-16T06:42:06;14.10;;;3.70;;
6598;SDS011;3335;43.198;27.918;2022-09-16T06:44:35;21.43;;;3.73;;
6598;SDS011;3335;43.198;27.918;2022-09-16T06:47:02;13.20;;;3.50;;
6598;SDS011;3335;43.198;27.918;2022-09-16T06:49:29;13.33;;;3.50;;
6598;SDS011;3335;43.198;27.918;2022-09-16T06:51:56;14.93;;;3.67;;
6598;SDS011;3335;43.198;27.918;2022-09-16T06:54:23;10.57;;;3.13;;
6598;SDS011;3335;43.198;27.918;2022-09-16T06:56:53;14.27;;;3.90;;
6598;SDS011;3335;43.198;27.918;2022-09-16T06:59:20;6.83;;;3.00;;
6598;SDS011;3335;43.198;27.918;2022-09-16T07:01:48;14.07;;;3.80;;
6598;SDS011;3335;43.198;27.918;2022-09-16T07:04:16;14.33;;;3.67;;
6598;SDS011;3335;43.198;27.918;2022-09-16T07:06:43;17.60;;;3.67;;
6598;SDS011;3335;43.198;27.918;2022-09-16T07:09:10;9.57;;;3.37;;
6598;SDS011;3335;43.198;27.918;2022-09-16T07:11:37;12.30;;;3.63;;
6598;SDS011;3335;43.198;27.918;2022-09-16T07:14:05;12.47;;;3.73;;
6598;SDS011;3335;43.198;27.918;2022-09-16T07:16:31;14.17;;;3.60;;
6598;SDS011;3335;43.198;27.918;2022-09-16T07:19:00;9.30;;;4.00;;
6598;SDS011;3335;43.198;27.918;2022-09-16T07:21:27;14.37;;;3.30;;
6598;SDS011;3335;43.198;27.918;2022-09-16T07:23:54;9.67;;;3.13;;
6598;SDS011;3335;43.198;27.918;2022-09-16T07:26:23;10.17;;;2.87;;
6598;SDS011;3335;43.198;27.918;2022-09-16T07:28:52;11.63;;;2.83;;
6598;SDS011;3335;43.198;27.918;2022-09-16T07:31:23;10.53;;;3.07;;
6598;SDS011;3335;43.198;27.918;2022-09-16T07:33:51;14.23;;;2.97;;
6598;SDS011;3335;43.198;27.918;2022-09-16T07:36:21;10.47;;;2.80;;
6598;SDS011;3335;43.198;27.918;2022-09-16T07:38:49;9.33;;;3.10;;
6598;SDS011;3335;43.198;27.918;2022-09-16T07:41:17;13.17;;;3.17;;
6598;SDS011;3335;43.198;27.918;2022-09-16T07:43:46;19.10;;;3.53;;
6598;SDS011;3335;43.198;27.918;2022-09-16T07:46:14;10.37;;;2.50;;
6598;SDS011;3335;43.198;27.918;2022-09-16T07:48:43;10.67;;;3.00;;
6598;SDS011;3335;43.198;27.918;2022-09-16T07:51:11;15.03;;;2.77;;
6598;SDS011;3335;43.198;27.918;2022-09-16T07:53:41;8.80;;;3.10;;
6598;SDS011;3335;43.198;27.918;2022-09-16T07:56:09;11.33;;;4.00;;
6598;SDS011;3335;43.198;27.918;2022-09-16T07:58:38;8.30;;;3.77;;
6598;SDS011;3335;43.198;27.918;2022-09-16T08:01:05;14.25;;;5.35;;
6598;SDS011;3335;43.198;27.918;2022-09-16T08:03:33;16.33;;;5.63;;
6598;SDS011;3335;43.198;27.918;2022-09-16T08:06:01;19.50;;;5.97;;
6598;SDS011;3335;43.198;27.918;2022-09-16T08:08:30;12.65;;;6.13;;
6598;SDS011;3335;43.198;27.918;2022-09-16T08:10:58;17.70;;;5.45;;
6598;SDS011;3335;43.198;27.918;2022-09-16T08:13:27;13.27;;;5.13;;
6598;SDS011;3335;43.198;27.918;2022-09-16T08:15:58;11.25;;;4.78;;
6598;SDS011;3335;43.198;27.918;2022-09-16T08:18:27;25.08;;;8.05;;
6598;SDS011;3335;43.198;27.918;2022-09-16T08:20:54;20.58;;;6.30;;
6598;SDS011;3335;43.198;27.918;2022-09-16T08:23:21;12.02;;;5.30;;
6598;SDS011;3335;43.198;27.918;2022-09-16T08:25:54;27.77;;;5.03;;
6598;SDS011;3335;43.198;27.918;2022-09-16T08:28:23;21.60;;;4.20;;
6598;SDS011;3335;43.198;27.918;2022-09-16T08:30:51;11.38;;;3.38;;
6598;SDS011;3335;43.198;27.918;2022-09-16T08:33:19;12.82;;;3.05;;
6598;SDS011;3335;43.198;27.918;2022-09-16T08:35:56;17.52;;;3.28;;
6598;SDS011;3335;43.198;27.918;2022-09-16T08:38:23;14.50;;;3.92;;
6598;SDS011;3335;43.198;27.918;2022-09-16T08:40:50;7.60;;;2.90;;
6598;SDS011;3335;43.198;27.918;2022-09-16T08:43:24;11.00;;;2.20;;
6598;SDS011;3335;43.198;27.918;2022-09-16T08:46:01;8.68;;;2.28;;
6598;SDS011;3335;43.198;27.918;2022-09-16T08:48:37;12.30;;;3.25;;
6598;SDS011;3335;43.198;27.918;2022-09-16T08:51:14;10.50;;;2.47;;
6598;SDS011;3335;43.198;27.918;2022-09-16T08:53:44;12.52;;;2.75;;
6598;SDS011;3335;43.198;27.918;2022-09-16T08:56:14;16.10;;;3.88;;
6598;SDS011;3335;43.198;27.918;2022-09-16T08:58:46;13.93;;;3.03;;
6598;SDS011;3335;43.198;27.918;2022-09-16T09:01:19;15.43;;;3.20;;
6598;SDS011;3335;43.198;27.918;2022-09-16T09:03:53;12.07;;;2.70;;
6598;SDS011;3335;43.198;27.918;2022-09-16T09:06:24;10.75;;;2.25;;
6598;SDS011;3335;43.198;27.918;2022-09-16T09:09:03;7.78;;;2.45;;
6598;SDS011;3335;43.198;27.918;2022-09-16T09:11:40;14.25;;;2.35;;
6598;SDS011;3335;43.198;27.918;2022-09-16T09:14:19;11.15;;;2.67;;
6598;SDS011;3335;43.198;27.918;2022-09-16T09:16:58;16.73;;;2.60;;
6598;SDS011;3335;43.198;27.918;2022-09-16T09:19:36;14.95;;;2.58;;
6598;SDS011;3335;43.198;27.918;2022-09-16T09:22:18;11.63;;;3.15;;
6598;SDS011;3335;43.198;27.918;2022-09-16T09:25:07;9.45;;;2.88;;
6598;SDS011;3335;43.198;27.918;2022-09-16T09:27:49;12.98;;;2.15;;
6598;SDS011;3335;43.198;27.918;2022-09-16T09:30:24;13.10;;;2.55;;
6598;SDS011;3335;43.198;27.918;2022-09-16T09:35:47;13.80;;;2.50;;
6598;SDS011;3335;43.198;27.918;2022-09-16T09:41:33;4.68;;;1.92;;
6598;SDS011;3335;43.198;27.918;2022-09-16T09:44:08;5.25;;;1.85;;
6598;SDS011;3335;43.198;27.918;2022-09-16T09:46:54;11.07;;;2.33;;
6598;SDS011;3335;43.198;27.918;2022-09-16T09:49:31;7.93;;;2.10;;
6598;SDS011;3335;43.198;27.918;2022-09-16T09:52:01;10.93;;;2.20;;
6598;SDS011;3335;43.198;27.918;2022-09-16T09:54:33;12.45;;;2.63;;
6598;SDS011;3335;43.198;27.918;2022-09-16T09:57:01;7.65;;;2.28;;
6598;SDS011;3335;43.198;27.918;2022-09-16T09:59:32;16.40;;;2.40;;
6598;SDS011;3335;43.198;27.918;2022-09-16T10:02:12;9.23;;;1.90;;
6598;SDS011;3335;43.198;27.918;2022-09-16T10:04:42;11.50;;;1.90;;
6598;SDS011;3335;43.198;27.918;2022-09-16T10:07:09;9.75;;;1.73;;
6598;SDS011;3335;43.198;27.918;2022-09-16T10:09:43;12.25;;;2.20;;
6598;SDS011;3335;43.198;27.918;2022-09-16T10:12:13;8.52;;;1.83;;
6598;SDS011;3335;43.198;27.918;2022-09-16T10:14:51;9.85;;;2.17;;
6598;SDS011;3335;43.198;27.918;2022-09-16T10:17:19;4.65;;;1.80;;
6598;SDS011;3335;43.198;27.918;2022-09-16T10:19:49;11.35;;;2.63;;
6598;SDS011;3335;43.198;27.918;2022-09-16T10:22:20;12.68;;;1.88;;
6598;SDS011;3335;43.198;27.918;2022-09-16T10:24:52;8.57;;;2.42;;
6598;SDS011;3335;43.198;27.918;2022-09-16T10:27:23;7.63;;;2.42;;
6598;SDS011;3335;43.198;27.918;2022-09-16T10:30:10;9.65;;;2.10;;
6598;SDS011;3335;43.198;27.918;2022-09-16T10:32:47;8.10;;;2.00;;
6598;SDS011;3335;43.198;27.918;2022-09-16T10:35:18;9.57;;;1.90;;
6598;SDS011;3335;43.198;27.918;2022-09-16T10:37:51;10.90;;;2.97;;
6598;SDS011;3335;43.198;27.918;2022-09-16T10:40:20;10.27;;;1.98;;
6598;SDS011;3335;43.198;27.918;2022-09-16T10:42:48;6.30;;;1.63;;
6598;SDS011;3335;43.198;27.918;2022-09-16T10:45:24;13.25;;;1.88;;
6598;SDS011;3335;43.198;27.918;2022-09-16T10:47:56;7.47;;;2.13;;
6598;SDS011;3335;43.198;27.918;2022-09-16T10:50:25;8.82;;;2.10;;
6598;SDS011;3335;43.198;27.918;2022-09-16T10:52:52;12.80;;;2.00;;
6598;SDS011;3335;43.198;27.918;2022-09-16T10:55:22;5.53;;;1.70;;
6598;SDS011;3335;43.198;27.918;2022-09-16T10:57:51;8.77;;;2.30;;
6598;SDS011;3335;43.198;27.918;2022-09-16T11:00:19;11.85;;;2.30;;
6598;SDS011;3335;43.198;27.918;2022-09-16T11:02:54;8.70;;;2.00;;
6598;SDS011;3335;43.198;27.918;2022-09-16T11:05:44;16.55;;;2.05;;
6598;SDS011;3335;43.198;27.918;2022-09-16T11:08:19;14.32;;;2.15;;
6598;SDS011;3335;43.198;27.918;2022-09-16T11:11:02;5.80;;;1.83;;
6598;SDS011;3335;43.198;27.918;2022-09-16T11:13:40;18.23;;;3.28;;
6598;SDS011;3335;43.198;27.918;2022-09-16T11:16:18;6.18;;;1.77;;
6598;SDS011;3335;43.198;27.918;2022-09-16T11:19:00;6.85;;;2.28;;
6598;SDS011;3335;43.198;27.918;2022-09-16T11:21:47;9.55;;;1.75;;
6598;SDS011;3335;43.198;27.918;2022-09-16T11:27:20;8.98;;;2.13;;
6598;SDS011;3335;43.198;27.918;2022-09-16T11:30:05;10.00;;;2.05;;
6598;SDS011;3335;43.198;27.918;2022-09-16T11:32:50;9.50;;;1.63;;
6598;SDS011;3335;43.198;27.918;2022-09-16T11:35:31;15.55;;;2.13;;
6598;SDS011;3335;43.198;27.918;2022-09-16T11:38:10;15.43;;;1.77;;
6598;SDS011;3335;43.198;27.918;2022-09-16T11:40:49;9.90;;;1.75;;
6598;SDS011;3335;43.198;27.918;2022-09-16T11:46:20;13.73;;;2.45;;
6598;SDS011;3335;43.198;27.918;2022-09-16T11:48:55;10.02;;;2.30;;
6598;SDS011;3335;43.198;27.918;2022-09-16T11:51:46;8.65;;;1.98;;
6598;SDS011;3335;43.198;27.918;2022-09-16T11:54:26;10.57;;;1.90;;
6598;SDS011;3335;43.198;27.918;2022-09-16T11:57:10;5.90;;;1.83;;
6598;SDS011;3335;43.198;27.918;2022-09-16T11:59:41;14.05;;;2.00;;
6598;SDS011;3335;43.198;27.918;2022-09-16T12:02:19;8.65;;;3.38;;
6598;SDS011;3335;43.198;27.918;2022-09-16T12:04:52;16.90;;;1.77;;
6598;SDS011;3335;43.198;27.918;2022-09-16T12:07:26;6.03;;;2.22;;
6598;SDS011;3335;43.198;27.918;2022-09-16T12:10:01;6.20;;;1.83;;
6598;SDS011;3335;43.198;27.918;2022-09-16T12:12:38;8.77;;;2.70;;
6598;SDS011;3335;43.198;27.918;2022-09-16T12:15:14;6.88;;;2.20;;
6598;SDS011;3335;43.198;27.918;2022-09-16T12:17:47;12.95;;;2.30;;
6598;SDS011;3335;43.198;27.918;2022-09-16T12:20:22;13.68;;;3.13;;
6598;SDS011;3335;43.198;27.918;2022-09-16T12:22:56;8.52;;;2.13;;
6598;SDS011;3335;43.198;27.918;2022-09-16T12:25:31;12.52;;;2.08;;
6598;SDS011;3335;43.198;27.918;2022-09-16T12:28:02;5.32;;;2.10;;
6598;SDS011;3335;43.198;27.918;2022-09-16T12:30:39;8.52;;;2.10;;
6598;SDS011;3335;43.198;27.918;2022-09-16T12:33:09;10.50;;;2.40;;
6598;SDS011;3335;43.198;27.918;2022-09-16T12:35:46;11.82;;;2.30;;
6598;SDS011;3335;43.198;27.918;2022-09-16T12:38:21;8.32;;;1.95;;
6598;SDS011;3335;43.198;27.918;2022-09-16T12:40:52;8.55;;;1.98;;
6598;SDS011;3335;43.198;27.918;2022-09-16T12:46:28;11.32;;;2.10;;
6598;SDS011;3335;43.198;27.918;2022-09-16T12:49:25;6.75;;;2.13;;
6598;SDS011;3335;43.198;27.918;2022-09-16T12:55:12;7.32;;;1.90;;
6598;SDS011;3335;43.198;27.918;2022-09-16T13:01:03;6.22;;;2.25;;
6598;SDS011;3335;43.198;27.918;2022-09-16T13:03:39;6.20;;;2.28;;
6598;SDS011;3335;43.198;27.918;2022-09-16T13:06:13;7.22;;;1.67;;
6598;SDS011;3335;43.198;27.918;2022-09-16T13:08:46;8.50;;;2.33;;
6598;SDS011;3335;43.198;27.918;2022-09-16T13:11:17;7.82;;;2.15;;
6598;SDS011;3335;43.198;27.918;2022-09-16T13:13:47;7.30;;;2.22;;
6598;SDS011;3335;43.198;27.918;2022-09-16T13:16:25;10.85;;;2.22;;
6598;SDS011;3335;43.198;27.918;2022-09-16T13:19:06;7.18;;;1.95;;
6598;SDS011;3335;43.198;27.918;2022-09-16T13:21:49;8.38;;;1.67;;
6598;SDS011;3335;43.198;27.918;2022-09-16T13:24:23;4.60;;;1.70;;
6598;SDS011;3335;43.198;27.918;2022-09-16T13:26:56;8.02;;;2.00;;
6598;SDS011;3335;43.198;27.918;2022-09-16T13:29:25;5.22;;;1.90;;
6598;SDS011;3335;43.198;27.918;2022-09-16T13:31:57;6.10;;;1.95;;
6598;SDS011;3335;43.198;27.918;2022-09-16T13:34:24;9.27;;;1.92;;
6598;SDS011;3335;43.198;27.918;2022-09-16T13:36:51;5.18;;;1.83;;
6598;SDS011;3335;43.198;27.918;2022-09-16T13:39:26;9.27;;;2.00;;
6598;SDS011;3335;43.198;27.918;2022-09-16T13:41:56;6.60;;;2.13;;
6598;SDS011;3335;43.198;27.918;2022-09-16T13:44:39;7.80;;;1.50;;
6598;SDS011;3335;43.198;27.918;2022-09-16T13:47:17;7.78;;;1.77;;
6598;SDS011;3335;43.198;27.918;2022-09-16T13:49:56;7.13;;;1.98;;
6598;SDS011;3335;43.198;27.918;2022-09-16T13:52:27;4.95;;;1.90;;
6598;SDS011;3335;43.198;27.918;2022-09-16T13:54:57;6.38;;;2.20;;
6598;SDS011;3335;43.198;27.918;2022-09-16T13:57:34;6.43;;;2.53;;
6598;SDS011;3335;43.198;27.918;2022-09-16T14:00:13;11.32;;;2.03;;
6598;SDS011;3335;43.198;27.918;2022-09-16T14:02:49;6.82;;;2.35;;
6598;SDS011;3335;43.198;27.918;2022-09-16T14:08:32;8.75;;;2.08;;
6598;SDS011;3335;43.198;27.918;2022-09-16T14:11:06;5.75;;;2.20;;
6598;SDS011;3335;43.198;27.918;2022-09-16T14:13:41;7.43;;;1.98;;
6598;SDS011;3335;43.198;27.918;2022-09-16T14:16:12;4.85;;;1.45;;
6598;SDS011;3335;43.198;27.918;2022-09-16T14:18:43;7.35;;;1.83;;
6598;SDS011;3335;43.198;27.918;2022-09-16T14:21:19;10.48;;;2.17;;
6598;SDS011;3335;43.198;27.918;2022-09-16T14:23:47;7.55;;;2.00;;
6598;SDS011;3335;43.198;27.918;2022-09-16T14:26:14;9.93;;;1.83;;
6598;SDS011;3335;43.198;27.918;2022-09-16T14:28:44;6.38;;;1.95;;
6598;SDS011;3335;43.198;27.918;2022-09-16T14:31:13;9.68;;;2.55;;
6598;SDS011;3335;43.198;27.918;2022-09-16T14:33:42;9.50;;;2.55;;
6598;SDS011;3335;43.198;27.918;2022-09-16T14:36:13;11.77;;;2.85;;
6598;SDS011;3335;43.198;27.918;2022-09-16T14:38:44;7.93;;;2.50;;
6598;SDS011;3335;43.198;27.918;2022-09-16T14:41:16;11.25;;;2.95;;
6598;SDS011;3335;43.198;27.918;2022-09-16T14:43:49;6.85;;;2.55;;
6598;SDS011;3335;43.198;27.918;2022-09-16T14:46:20;7.07;;;2.97;;
6598;SDS011;3335;43.198;27.918;2022-09-16T14:48:47;6.35;;;2.60;;
6598;SDS011;3335;43.198;27.918;2022-09-16T14:51:17;9.73;;;2.65;;
6598;SDS011;3335;43.198;27.918;2022-09-16T14:53:56;16.23;;;3.13;;
6598;SDS011;3335;43.198;27.918;2022-09-16T14:56:24;9.10;;;3.28;;
6598;SDS011;3335;43.198;27.918;2022-09-16T14:58:53;8.73;;;3.15;;
6598;SDS011;3335;43.198;27.918;2022-09-16T15:01:23;7.57;;;2.58;;
6598;SDS011;3335;43.198;27.918;2022-09-16T15:03:53;8.13;;;2.70;;
6598;SDS011;3335;43.198;27.918;2022-09-16T15:06:26;13.43;;;2.97;;
6598;SDS011;3335;43.198;27.918;2022-09-16T15:08:58;11.45;;;2.53;;
6598;SDS011;3335;43.198;27.918;2022-09-16T15:11:27;9.73;;;2.60;;
6598;SDS011;3335;43.198;27.918;2022-09-16T15:13:59;4.53;;;2.42;;
6598;SDS011;3335;43.198;27.918;2022-09-16T15:16:26;11.70;;;3.47;;
6598;SDS011;3335;43.198;27.918;2022-09-16T15:18:55;27.60;;;5.18;;
6598;SDS011;3335;43.198;27.918;2022-09-16T15:21:24;15.35;;;3.80;;
6598;SDS011;3335;43.198;27.918;2022-09-16T15:23:54;16.63;;;2.60;;
6598;SDS011;3335;43.198;27.918;2022-09-16T15:26:23;12.40;;;2.77;;
6598;SDS011;3335;43.198;27.918;2022-09-16T15:28:53;13.87;;;2.57;;
6598;SDS011;3335;43.198;27.918;2022-09-16T15:31:30;16.97;;;2.77;;
6598;SDS011;3335;43.198;27.918;2022-09-16T15:34:01;9.10;;;2.53;;
6598;SDS011;3335;43.198;27.918;2022-09-16T15:36:31;7.27;;;2.00;;
6598;SDS011;3335;43.198;27.918;2022-09-16T15:39:05;7.47;;;2.20;;
6598;SDS011;3335;43.198;27.918;2022-09-16T15:41:47;7.80;;;2.10;;
6598;SDS011;3335;43.198;27.918;2022-09-16T15:44:15;7.00;;;2.70;;
6598;SDS011;3335;43.198;27.918;2022-09-16T15:46:49;9.47;;;2.97;;